sensor_id;sensor_type;location;lat;lon;timestamp;temperature;humidity
20174;DHT22;10246;50.620;7.232;2024-01-27T00:02:24;6.00;1.00
20174;DHT22;10246;50.620;7.232;2024-01-27T00:04:51;6.00;1.00
20174;DHT22;10246;50.620;7.232;2024-01-27T00:07:19;6.00;1.00
20174;DHT22;10246;50.620;7.232;2024-01-27T00:09:45;6.00;1.00
20174;DHT22;10246;50.620;7.232;2024-01-27T00:12:12;6.00;1.00
20174;DHT22;10246;50.620;7.232;2024-01-27T00:14:39;6.00;1.00
20174;DHT22;10246;50.620;7.232;2024-01-27T00:17:06;6.00;1.00
20174;DHT22;10246;50.620;7.232;2024-01-27T00:19:32;5.90;1.00
20174;DHT22;10246;50.620;7.232;2024-01-27T00:21:59;5.90;1.00
20174;DHT22;10246;50.620;7.232;2024-01-27T00:24:27;5.80;1.00
20174;DHT22;10246;50.620;7.232;2024-01-27T00:26:54;5.90;1.00
20174;DHT22;10246;50.620;7.232;2024-01-27T00:29:21;5.80;1.00
20174;DHT22;10246;50.620;7.232;2024-01-27T00:31:48;5.80;1.00
20174;DHT22;10246;50.620;7.232;2024-01-27T00:34:16;5.80;1.00
20174;DHT22;10246;50.620;7.232;2024-01-27T00:36:43;5.70;1.00
20174;DHT22;10246;50.620;7.232;2024-01-27T00:39:14;5.70;1.00
20174;DHT22;10246;50.620;7.232;2024-01-27T00:41:42;5.60;1.00
20174;DHT22;10246;50.620;7.232;2024-01-27T00:44:09;5.40;1.00
20174;DHT22;10246;50.620;7.232;2024-01-27T00:46:36;5.40;1.00
20174;DHT22;10246;50.620;7.232;2024-01-27T00:49:03;5.40;1.00
20174;DHT22;10246;50.620;7.232;2024-01-27T00:51:29;5.30;1.00
20174;DHT22;10246;50.620;7.232;2024-01-27T00:53:56;5.40;1.00
20174;DHT22;10246;50.620;7.232;2024-01-27T00:56:23;5.20;1.00
20174;DHT22;10246;50.620;7.232;2024-01-27T00:58:53;5.20;1.00
20174;DHT22;10246;50.620;7.232;2024-01-27T01:01:20;5.10;1.00
20174;DHT22;10246;50.620;7.232;2024-01-27T01:03:46;5.10;1.10
20174;DHT22;10246;50.620;7.232;2024-01-27T01:06:13;5.10;1.00
20174;DHT22;10246;50.620;7.232;2024-01-27T01:08:40;5.10;1.40
20174;DHT22;10246;50.620;7.232;2024-01-27T01:11:07;5.10;1.00
20174;DHT22;10246;50.620;7.232;2024-01-27T01:13:33;5.00;1.00
20174;DHT22;10246;50.620;7.232;2024-01-27T01:16:01;4.90;1.10
20174;DHT22;10246;50.620;7.232;2024-01-27T01:18:29;4.90;1.40
20174;DHT22;10246;50.620;7.232;2024-01-27T01:20:55;4.90;1.40
20174;DHT22;10246;50.620;7.232;2024-01-27T01:23:22;4.80;1.50
20174;DHT22;10246;50.620;7.232;2024-01-27T01:25:49;4.90;2.20
20174;DHT22;10246;50.620;7.232;2024-01-27T01:28:15;4.90;1.90
20174;DHT22;10246;50.620;7.232;2024-01-27T01:30:42;4.90;1.80
20174;DHT22;10246;50.620;7.232;2024-01-27T01:33:11;4.80;2.00
20174;DHT22;10246;50.620;7.232;2024-01-27T01:35:38;4.80;1.90
20174;DHT22;10246;50.620;7.232;2024-01-27T01:38:05;4.80;2.30
20174;DHT22;10246;50.620;7.232;2024-01-27T01:40:31;4.60;1.80
20174;DHT22;10246;50.620;7.232;2024-01-27T01:42:58;4.60;2.90
20174;DHT22;10246;50.620;7.232;2024-01-27T01:45:25;4.60;2.90
20174;DHT22;10246;50.620;7.232;2024-01-27T01:47:52;4.50;2.80
20174;DHT22;10246;50.620;7.232;2024-01-27T01:50:20;4.60;2.70
20174;DHT22;10246;50.620;7.232;2024-01-27T01:52:48;4.50;2.60
20174;DHT22;10246;50.620;7.232;2024-01-27T01:55:15;4.50;2.60
20174;DHT22;10246;50.620;7.232;2024-01-27T01:57:43;4.40;3.00
20174;DHT22;10246;50.620;7.232;2024-01-27T02:00:11;4.40;3.10
20174;DHT22;10246;50.620;7.232;2024-01-27T02:02:42;4.40;3.60
20174;DHT22;10246;50.620;7.232;2024-01-27T02:05:09;4.30;3.90
20174;DHT22;10246;50.620;7.232;2024-01-27T02:07:38;4.30;4.20
20174;DHT22;10246;50.620;7.232;2024-01-27T02:10:06;4.30;4.20
20174;DHT22;10246;50.620;7.232;2024-01-27T02:12:32;4.20;3.70
20174;DHT22;10246;50.620;7.232;2024-01-27T02:14:59;4.20;4.00
20174;DHT22;10246;50.620;7.232;2024-01-27T02:17:26;4.10;4.20
20174;DHT22;10246;50.620;7.232;2024-01-27T02:19:53;4.10;4.90
20174;DHT22;10246;50.620;7.232;2024-01-27T02:22:19;4.00;4.80
20174;DHT22;10246;50.620;7.232;2024-01-27T02:24:47;3.90;5.60
20174;DHT22;10246;50.620;7.232;2024-01-27T02:27:14;4.00;5.90
20174;DHT22;10246;50.620;7.232;2024-01-27T02:29:41;3.90;5.50
20174;DHT22;10246;50.620;7.232;2024-01-27T02:32:09;3.90;5.80
20174;DHT22;10246;50.620;7.232;2024-01-27T02:34:36;3.90;5.60
20174;DHT22;10246;50.620;7.232;2024-01-27T02:37:03;3.80;5.80
20174;DHT22;10246;50.620;7.232;2024-01-27T02:39:30;3.80;6.10
20174;DHT22;10246;50.620;7.232;2024-01-27T02:41:58;3.80;6.20
20174;DHT22;10246;50.620;7.232;2024-01-27T02:44:25;3.80;5.70
20174;DHT22;10246;50.620;7.232;2024-01-27T02:46:52;3.70;5.80
20174;DHT22;10246;50.620;7.232;2024-01-27T02:49:18;3.70;5.20
20174;DHT22;10246;50.620;7.232;2024-01-27T02:51:45;3.70;5.20
20174;DHT22;10246;50.620;7.232;2024-01-27T02:54:13;3.60;5.90
20174;DHT22;10246;50.620;7.232;2024-01-27T02:56:41;3.50;6.60
20174;DHT22;10246;50.620;7.232;2024-01-27T02:59:11;3.50;5.80
20174;DHT22;10246;50.620;7.232;2024-01-27T03:01:37;3.50;7.20
20174;DHT22;10246;50.620;7.232;2024-01-27T03:04:04;3.50;6.80
20174;DHT22;10246;50.620;7.232;2024-01-27T03:06:31;3.50;7.10
20174;DHT22;10246;50.620;7.232;2024-01-27T03:08:58;3.40;6.60
20174;DHT22;10246;50.620;7.232;2024-01-27T03:11:25;3.30;6.60
20174;DHT22;10246;50.620;7.232;2024-01-27T03:13:51;3.40;7.20
20174;DHT22;10246;50.620;7.232;2024-01-27T03:16:19;3.30;7.10
20174;DHT22;10246;50.620;7.232;2024-01-27T03:18:46;3.30;6.30
20174;DHT22;10246;50.620;7.232;2024-01-27T03:21:13;3.30;6.90
20174;DHT22;10246;50.620;7.232;2024-01-27T03:23:40;3.20;6.90
20174;DHT22;10246;50.620;7.232;2024-01-27T03:26:06;3.00;7.70
20174;DHT22;10246;50.620;7.232;2024-01-27T03:28:33;3.10;7.90
20174;DHT22;10246;50.620;7.232;2024-01-27T03:31:00;3.00;8.20
20174;DHT22;10246;50.620;7.232;2024-01-27T03:33:28;3.00;8.40
20174;DHT22;10246;50.620;7.232;2024-01-27T03:35:56;3.00;8.80
20174;DHT22;10246;50.620;7.232;2024-01-27T03:38:22;3.00;8.00
20174;DHT22;10246;50.620;7.232;2024-01-27T03:40:49;3.00;7.70
20174;DHT22;10246;50.620;7.232;2024-01-27T03:43:16;3.00;8.30
20174;DHT22;10246;50.620;7.232;2024-01-27T03:45:43;2.90;8.50
20174;DHT22;10246;50.620;7.232;2024-01-27T03:48:10;2.90;8.40
20174;DHT22;10246;50.620;7.232;2024-01-27T03:50:38;2.80;8.50
20174;DHT22;10246;50.620;7.232;2024-01-27T03:53:05;2.80;8.60
20174;DHT22;10246;50.620;7.232;2024-01-27T03:55:32;2.70;8.60
20174;DHT22;10246;50.620;7.232;2024-01-27T03:57:59;2.80;8.60
20174;DHT22;10246;50.620;7.232;2024-01-27T04:00:27;2.70;8.60
20174;DHT22;10246;50.620;7.232;2024-01-27T04:02:55;2.70;9.40
20174;DHT22;10246;50.620;7.232;2024-01-27T04:05:21;2.70;9.20
20174;DHT22;10246;50.620;7.232;2024-01-27T04:07:49;2.70;9.40
20174;DHT22;10246;50.620;7.232;2024-01-27T04:10:16;2.70;8.60
20174;DHT22;10246;50.620;7.232;2024-01-27T04:12:43;2.70;8.60
20174;DHT22;10246;50.620;7.232;2024-01-27T04:15:10;2.70;8.60
20174;DHT22;10246;50.620;7.232;2024-01-27T04:17:37;2.60;8.50
20174;DHT22;10246;50.620;7.232;2024-01-27T04:20:05;2.60;9.20
20174;DHT22;10246;50.620;7.232;2024-01-27T04:22:33;2.60;9.10
20174;DHT22;10246;50.620;7.232;2024-01-27T04:25:01;2.60;8.60
20174;DHT22;10246;50.620;7.232;2024-01-27T04:27:29;2.60;8.50
20174;DHT22;10246;50.620;7.232;2024-01-27T04:29:56;2.60;8.50
20174;DHT22;10246;50.620;7.232;2024-01-27T04:32:23;2.60;8.50
20174;DHT22;10246;50.620;7.232;2024-01-27T04:34:50;2.50;8.50
20174;DHT22;10246;50.620;7.232;2024-01-27T04:37:18;2.50;8.50
20174;DHT22;10246;50.620;7.232;2024-01-27T04:39:44;2.50;8.50
20174;DHT22;10246;50.620;7.232;2024-01-27T04:42:12;2.50;8.50
20174;DHT22;10246;50.620;7.232;2024-01-27T04:44:40;2.40;8.70
20174;DHT22;10246;50.620;7.232;2024-01-27T04:47:07;2.40;8.40
20174;DHT22;10246;50.620;7.232;2024-01-27T04:49:33;2.50;9.20
20174;DHT22;10246;50.620;7.232;2024-01-27T04:52:00;2.50;9.20
20174;DHT22;10246;50.620;7.232;2024-01-27T04:54:27;2.50;9.00
20174;DHT22;10246;50.620;7.232;2024-01-27T04:56:54;2.40;9.00
20174;DHT22;10246;50.620;7.232;2024-01-27T04:59:22;2.40;8.80
20174;DHT22;10246;50.620;7.232;2024-01-27T05:01:50;2.40;8.60
20174;DHT22;10246;50.620;7.232;2024-01-27T05:04:17;2.50;8.50
20174;DHT22;10246;50.620;7.232;2024-01-27T05:06:44;2.50;8.50
20174;DHT22;10246;50.620;7.232;2024-01-27T05:09:11;2.40;8.40
20174;DHT22;10246;50.620;7.232;2024-01-27T05:11:38;2.40;8.40
20174;DHT22;10246;50.620;7.232;2024-01-27T05:14:05;2.50;8.50
20174;DHT22;10246;50.620;7.232;2024-01-27T05:16:33;2.30;8.30
20174;DHT22;10246;50.620;7.232;2024-01-27T05:19:00;2.30;8.40
20174;DHT22;10246;50.620;7.232;2024-01-27T05:21:26;2.30;8.70
20174;DHT22;10246;50.620;7.232;2024-01-27T05:23:53;2.30;8.80
20174;DHT22;10246;50.620;7.232;2024-01-27T05:26:20;2.20;9.30
20174;DHT22;10246;50.620;7.232;2024-01-27T05:28:47;2.20;9.20
20174;DHT22;10246;50.620;7.232;2024-01-27T05:31:14;2.10;9.80
20174;DHT22;10246;50.620;7.232;2024-01-27T05:33:43;2.20;9.90
20174;DHT22;10246;50.620;7.232;2024-01-27T05:36:10;2.10;9.80
20174;DHT22;10246;50.620;7.232;2024-01-27T05:38:37;2.10;10.30
20174;DHT22;10246;50.620;7.232;2024-01-27T05:41:03;2.20;10.30
20174;DHT22;10246;50.620;7.232;2024-01-27T05:43:30;2.10;10.30
20174;DHT22;10246;50.620;7.232;2024-01-27T05:45:57;2.20;10.40
20174;DHT22;10246;50.620;7.232;2024-01-27T05:48:25;2.10;10.50
20174;DHT22;10246;50.620;7.232;2024-01-27T05:50:56;2.10;10.60
20174;DHT22;10246;50.620;7.232;2024-01-27T05:53:24;2.10;10.60
20174;DHT22;10246;50.620;7.232;2024-01-27T05:55:50;2.10;10.60
20174;DHT22;10246;50.620;7.232;2024-01-27T05:58:17;2.10;10.60
20174;DHT22;10246;50.620;7.232;2024-01-27T06:00:46;2.10;10.20
20174;DHT22;10246;50.620;7.232;2024-01-27T06:03:13;2.10;10.40
20174;DHT22;10246;50.620;7.232;2024-01-27T06:05:41;2.10;10.30
20174;DHT22;10246;50.620;7.232;2024-01-27T06:08:09;2.10;10.20
20174;DHT22;10246;50.620;7.232;2024-01-27T06:10:36;2.10;10.40
20174;DHT22;10246;50.620;7.232;2024-01-27T06:13:03;2.00;10.00
20174;DHT22;10246;50.620;7.232;2024-01-27T06:15:30;2.00;9.90
20174;DHT22;10246;50.620;7.232;2024-01-27T06:17:57;2.00;10.20
20174;DHT22;10246;50.620;7.232;2024-01-27T06:20:24;2.00;10.00
20174;DHT22;10246;50.620;7.232;2024-01-27T06:22:51;2.00;10.10
20174;DHT22;10246;50.620;7.232;2024-01-27T06:25:20;1.90;10.10
20174;DHT22;10246;50.620;7.232;2024-01-27T06:27:47;1.80;10.30
20174;DHT22;10246;50.620;7.232;2024-01-27T06:30:15;1.80;10.80
20174;DHT22;10246;50.620;7.232;2024-01-27T06:32:42;1.80;11.30
20174;DHT22;10246;50.620;7.232;2024-01-27T06:35:08;1.90;11.80
20174;DHT22;10246;50.620;7.232;2024-01-27T06:37:35;1.90;11.40
20174;DHT22;10246;50.620;7.232;2024-01-27T06:40:03;1.80;11.00
20174;DHT22;10246;50.620;7.232;2024-01-27T06:42:31;1.80;11.10
20174;DHT22;10246;50.620;7.232;2024-01-27T06:44:58;1.80;10.80
20174;DHT22;10246;50.620;7.232;2024-01-27T06:47:24;1.80;11.20
20174;DHT22;10246;50.620;7.232;2024-01-27T06:49:51;1.70;11.10
20174;DHT22;10246;50.620;7.232;2024-01-27T06:52:18;1.70;11.40
20174;DHT22;10246;50.620;7.232;2024-01-27T06:54:45;1.60;11.40
20174;DHT22;10246;50.620;7.232;2024-01-27T06:57:18;1.70;11.60
20174;DHT22;10246;50.620;7.232;2024-01-27T06:59:48;1.60;11.90
20174;DHT22;10246;50.620;7.232;2024-01-27T07:02:18;1.60;11.30
20174;DHT22;10246;50.620;7.232;2024-01-27T07:04:45;1.50;11.60
20174;DHT22;10246;50.620;7.232;2024-01-27T07:07:12;1.60;11.50
20174;DHT22;10246;50.620;7.232;2024-01-27T07:09:38;1.60;11.80
20174;DHT22;10246;50.620;7.232;2024-01-27T07:12:06;1.60;11.90
20174;DHT22;10246;50.620;7.232;2024-01-27T07:14:34;1.60;12.20
20174;DHT22;10246;50.620;7.232;2024-01-27T07:17:03;1.60;12.70
20174;DHT22;10246;50.620;7.232;2024-01-27T07:19:30;1.60;12.10
20174;DHT22;10246;50.620;7.232;2024-01-27T07:21:57;1.60;11.90
20174;DHT22;10246;50.620;7.232;2024-01-27T07:24:23;1.60;11.90
20174;DHT22;10246;50.620;7.232;2024-01-27T07:26:50;1.60;11.70
20174;DHT22;10246;50.620;7.232;2024-01-27T07:29:17;1.50;12.40
20174;DHT22;10246;50.620;7.232;2024-01-27T07:31:44;1.50;12.60
20174;DHT22;10246;50.620;7.232;2024-01-27T07:34:12;1.60;13.10
20174;DHT22;10246;50.620;7.232;2024-01-27T07:36:38;1.60;12.60
20174;DHT22;10246;50.620;7.232;2024-01-27T07:39:05;1.60;12.40
20174;DHT22;10246;50.620;7.232;2024-01-27T07:41:32;1.50;11.80
20174;DHT22;10246;50.620;7.232;2024-01-27T07:44:07;1.60;11.60
20174;DHT22;10246;50.620;7.232;2024-01-27T07:46:33;1.50;11.40
20174;DHT22;10246;50.620;7.232;2024-01-27T07:49:01;1.50;11.60
20174;DHT22;10246;50.620;7.232;2024-01-27T07:51:29;1.60;11.90
20174;DHT22;10246;50.620;7.232;2024-01-27T07:53:56;1.60;12.10
20174;DHT22;10246;50.620;7.232;2024-01-27T07:56:23;1.60;12.10
20174;DHT22;10246;50.620;7.232;2024-01-27T07:58:49;1.70;12.30
20174;DHT22;10246;50.620;7.232;2024-01-27T08:01:16;1.60;12.20
20174;DHT22;10246;50.620;7.232;2024-01-27T08:03:45;1.70;12.70
20174;DHT22;10246;50.620;7.232;2024-01-27T08:06:16;1.60;12.00
20174;DHT22;10246;50.620;7.232;2024-01-27T08:08:46;1.70;12.80
20174;DHT22;10246;50.620;7.232;2024-01-27T08:11:13;1.60;12.80
20174;DHT22;10246;50.620;7.232;2024-01-27T08:13:40;1.70;13.00
20174;DHT22;10246;50.620;7.232;2024-01-27T08:16:07;1.70;12.90
20174;DHT22;10246;50.620;7.232;2024-01-27T08:18:38;1.70;12.90
20174;DHT22;10246;50.620;7.232;2024-01-27T08:21:05;1.70;13.00
20174;DHT22;10246;50.620;7.232;2024-01-27T08:23:31;1.70;13.00
20174;DHT22;10246;50.620;7.232;2024-01-27T08:26:02;1.70;13.30
20174;DHT22;10246;50.620;7.232;2024-01-27T08:28:29;1.70;13.30
20174;DHT22;10246;50.620;7.232;2024-01-27T08:30:55;1.70;13.30
20174;DHT22;10246;50.620;7.232;2024-01-27T08:33:25;1.60;13.70
20174;DHT22;10246;50.620;7.232;2024-01-27T08:35:52;1.60;14.20
20174;DHT22;10246;50.620;7.232;2024-01-27T08:38:21;1.70;14.10
20174;DHT22;10246;50.620;7.232;2024-01-27T08:40:48;1.70;13.90
20174;DHT22;10246;50.620;7.232;2024-01-27T08:43:16;1.70;13.90
20174;DHT22;10246;50.620;7.232;2024-01-27T08:45:43;1.70;13.80
20174;DHT22;10246;50.620;7.232;2024-01-27T08:48:10;1.70;14.00
20174;DHT22;10246;50.620;7.232;2024-01-27T08:50:38;1.70;14.20
20174;DHT22;10246;50.620;7.232;2024-01-27T08:53:04;1.70;14.40
20174;DHT22;10246;50.620;7.232;2024-01-27T08:55:31;1.70;14.50
20174;DHT22;10246;50.620;7.232;2024-01-27T08:57:58;1.70;14.60
20174;DHT22;10246;50.620;7.232;2024-01-27T09:00:26;1.80;14.80
20174;DHT22;10246;50.620;7.232;2024-01-27T09:02:53;1.90;15.10
20174;DHT22;10246;50.620;7.232;2024-01-27T09:05:20;1.90;15.00
20174;DHT22;10246;50.620;7.232;2024-01-27T09:07:46;1.90;15.00
20174;DHT22;10246;50.620;7.232;2024-01-27T09:10:13;1.90;15.00
20174;DHT22;10246;50.620;7.232;2024-01-27T09:12:41;2.00;15.50
20174;DHT22;10246;50.620;7.232;2024-01-27T09:15:08;2.00;15.20
20174;DHT22;10246;50.620;7.232;2024-01-27T09:17:36;2.00;15.10
20174;DHT22;10246;50.620;7.232;2024-01-27T09:20:04;2.10;15.40
20174;DHT22;10246;50.620;7.232;2024-01-27T09:22:31;2.20;15.40
20174;DHT22;10246;50.620;7.232;2024-01-27T09:24:58;2.20;15.60
20174;DHT22;10246;50.620;7.232;2024-01-27T09:27:25;2.30;15.70
20174;DHT22;10246;50.620;7.232;2024-01-27T09:29:52;2.40;15.40
20174;DHT22;10246;50.620;7.232;2024-01-27T09:32:18;2.40;15.80
20174;DHT22;10246;50.620;7.232;2024-01-27T09:34:47;2.50;15.80
20174;DHT22;10246;50.620;7.232;2024-01-27T09:37:13;2.70;15.90
20174;DHT22;10246;50.620;7.232;2024-01-27T09:39:40;2.80;14.90
20174;DHT22;10246;50.620;7.232;2024-01-27T09:42:07;2.80;14.40
20174;DHT22;10246;50.620;7.232;2024-01-27T09:44:40;2.90;14.40
20174;DHT22;10246;50.620;7.232;2024-01-27T09:47:07;3.10;14.40
20174;DHT22;10246;50.620;7.232;2024-01-27T09:49:36;3.20;13.90
20174;DHT22;10246;50.620;7.232;2024-01-27T09:52:05;3.40;13.30
20174;DHT22;10246;50.620;7.232;2024-01-27T09:54:33;3.70;12.80
20174;DHT22;10246;50.620;7.232;2024-01-27T09:57:01;3.80;12.10
20174;DHT22;10246;50.620;7.232;2024-01-27T09:59:28;3.90;11.60
20174;DHT22;10246;50.620;7.232;2024-01-27T10:01:57;4.00;11.10
20174;DHT22;10246;50.620;7.232;2024-01-27T10:04:25;4.10;10.80
20174;DHT22;10246;50.620;7.232;2024-01-27T10:06:52;4.20;10.60
20174;DHT22;10246;50.620;7.232;2024-01-27T10:09:20;4.30;10.80
20174;DHT22;10246;50.620;7.232;2024-01-27T10:11:47;4.50;10.70
20174;DHT22;10246;50.620;7.232;2024-01-27T10:14:14;4.60;10.20
20174;DHT22;10246;50.620;7.232;2024-01-27T10:16:42;4.70;10.00
20174;DHT22;10246;50.620;7.232;2024-01-27T10:19:14;4.90;9.80
20174;DHT22;10246;50.620;7.232;2024-01-27T10:21:42;5.00;9.10
20174;DHT22;10246;50.620;7.232;2024-01-27T10:24:09;5.10;8.20
20174;DHT22;10246;50.620;7.232;2024-01-27T10:26:37;5.30;6.70
20174;DHT22;10246;50.620;7.232;2024-01-27T10:29:04;5.50;4.10
20174;DHT22;10246;50.620;7.232;2024-01-27T10:31:32;5.60;3.50
20174;DHT22;10246;50.620;7.232;2024-01-27T10:34:00;5.70;3.00
20174;DHT22;10246;50.620;7.232;2024-01-27T10:36:39;5.80;2.70
20174;DHT22;10246;50.620;7.232;2024-01-27T10:39:15;5.90;1.80
20174;DHT22;10246;50.620;7.232;2024-01-27T10:41:45;6.00;1.60
20174;DHT22;10246;50.620;7.232;2024-01-27T10:44:14;6.10;1.40
20174;DHT22;10246;50.620;7.232;2024-01-27T10:46:43;6.20;1.70
20174;DHT22;10246;50.620;7.232;2024-01-27T10:49:12;6.40;1.00
20174;DHT22;10246;50.620;7.232;2024-01-27T10:51:43;6.50;1.00
20174;DHT22;10246;50.620;7.232;2024-01-27T10:54:14;6.60;1.00
20174;DHT22;10246;50.620;7.232;2024-01-27T10:56:43;6.70;1.00
20174;DHT22;10246;50.620;7.232;2024-01-27T10:59:12;6.80;1.00
20174;DHT22;10246;50.620;7.232;2024-01-27T11:01:41;6.90;1.00
20174;DHT22;10246;50.620;7.232;2024-01-27T11:04:11;6.90;1.00
20174;DHT22;10246;50.620;7.232;2024-01-27T11:06:40;7.00;1.00
20174;DHT22;10246;50.620;7.232;2024-01-27T11:09:10;7.10;1.00
20174;DHT22;10246;50.620;7.232;2024-01-27T11:11:42;7.20;1.00
20174;DHT22;10246;50.620;7.232;2024-01-27T11:14:13;7.30;1.00
20174;DHT22;10246;50.620;7.232;2024-01-27T11:16:40;7.40;1.00
20174;DHT22;10246;50.620;7.232;2024-01-27T11:19:10;7.40;1.00
20174;DHT22;10246;50.620;7.232;2024-01-27T11:21:37;7.50;1.00
20174;DHT22;10246;50.620;7.232;2024-01-27T11:24:13;7.60;1.00
20174;DHT22;10246;50.620;7.232;2024-01-27T11:26:40;7.60;1.00
20174;DHT22;10246;50.620;7.232;2024-01-27T11:29:07;7.50;1.00
20174;DHT22;10246;50.620;7.232;2024-01-27T11:31:40;7.40;1.00
20174;DHT22;10246;50.620;7.232;2024-01-27T11:34:10;7.50;1.00
20174;DHT22;10246;50.620;7.232;2024-01-27T11:36:38;7.50;1.00
20174;DHT22;10246;50.620;7.232;2024-01-27T11:39:05;7.60;1.00
20174;DHT22;10246;50.620;7.232;2024-01-27T11:41:49;7.70;1.00
20174;DHT22;10246;50.620;7.232;2024-01-27T11:44:15;7.70;1.00
20174;DHT22;10246;50.620;7.232;2024-01-27T11:46:44;7.80;1.00
20174;DHT22;10246;50.620;7.232;2024-01-27T11:49:14;7.80;1.00
20174;DHT22;10246;50.620;7.232;2024-01-27T11:51:41;8.00;1.00
20174;DHT22;10246;50.620;7.232;2024-01-27T11:54:08;8.10;1.00
20174;DHT22;10246;50.620;7.232;2024-01-27T11:56:35;8.20;1.00
20174;DHT22;10246;50.620;7.232;2024-01-27T11:59:01;8.40;1.00
20174;DHT22;10246;50.620;7.232;2024-01-27T12:01:28;8.40;1.00
20174;DHT22;10246;50.620;7.232;2024-01-27T12:03:59;8.60;1.00
20174;DHT22;10246;50.620;7.232;2024-01-27T12:06:26;8.60;1.00
20174;DHT22;10246;50.620;7.232;2024-01-27T12:08:55;8.60;1.00
20174;DHT22;10246;50.620;7.232;2024-01-27T12:11:23;8.60;1.00
20174;DHT22;10246;50.620;7.232;2024-01-27T12:13:49;8.60;1.00
20174;DHT22;10246;50.620;7.232;2024-01-27T12:16:17;8.60;1.00
20174;DHT22;10246;50.620;7.232;2024-01-27T12:18:44;8.70;1.00
20174;DHT22;10246;50.620;7.232;2024-01-27T12:21:12;8.70;1.00
20174;DHT22;10246;50.620;7.232;2024-01-27T12:23:50;8.80;1.00
20174;DHT22;10246;50.620;7.232;2024-01-27T12:26:16;8.80;1.00
20174;DHT22;10246;50.620;7.232;2024-01-27T12:28:45;9.00;1.00
20174;DHT22;10246;50.620;7.232;2024-01-27T12:31:12;9.00;1.00
20174;DHT22;10246;50.620;7.232;2024-01-27T12:33:39;9.20;1.00
20174;DHT22;10246;50.620;7.232;2024-01-27T12:36:07;9.20;1.00
20174;DHT22;10246;50.620;7.232;2024-01-27T12:38:37;9.20;1.00
20174;DHT22;10246;50.620;7.232;2024-01-27T12:41:04;9.30;1.00
20174;DHT22;10246;50.620;7.232;2024-01-27T12:43:30;9.30;1.00
20174;DHT22;10246;50.620;7.232;2024-01-27T12:45:57;9.30;1.00
20174;DHT22;10246;50.620;7.232;2024-01-27T12:48:24;9.40;1.00
20174;DHT22;10246;50.620;7.232;2024-01-27T12:50:51;9.50;1.00
20174;DHT22;10246;50.620;7.232;2024-01-27T12:53:18;9.60;1.00
20174;DHT22;10246;50.620;7.232;2024-01-27T12:55:46;9.60;1.00
20174;DHT22;10246;50.620;7.232;2024-01-27T12:58:13;9.70;1.00
20174;DHT22;10246;50.620;7.232;2024-01-27T13:00:40;9.80;1.00
20174;DHT22;10246;50.620;7.232;2024-01-27T13:03:07;9.80;1.00
20174;DHT22;10246;50.620;7.232;2024-01-27T13:05:34;9.70;1.00
20174;DHT22;10246;50.620;7.232;2024-01-27T13:08:04;9.80;1.00
20174;DHT22;10246;50.620;7.232;2024-01-27T13:10:31;9.80;1.00
20174;DHT22;10246;50.620;7.232;2024-01-27T13:12:59;9.80;1.00
20174;DHT22;10246;50.620;7.232;2024-01-27T13:15:28;9.80;1.00
20174;DHT22;10246;50.620;7.232;2024-01-27T13:17:55;9.80;1.00
20174;DHT22;10246;50.620;7.232;2024-01-27T13:20:22;9.80;1.00
20174;DHT22;10246;50.620;7.232;2024-01-27T13:22:48;9.90;1.00
20174;DHT22;10246;50.620;7.232;2024-01-27T13:25:16;10.00;1.00
20174;DHT22;10246;50.620;7.232;2024-01-27T13:27:43;10.10;1.00
20174;DHT22;10246;50.620;7.232;2024-01-27T13:30:12;10.10;1.00
20174;DHT22;10246;50.620;7.232;2024-01-27T13:32:39;10.10;1.00
20174;DHT22;10246;50.620;7.232;2024-01-27T13:35:07;10.30;1.00
20174;DHT22;10246;50.620;7.232;2024-01-27T13:37:34;10.30;1.00
20174;DHT22;10246;50.620;7.232;2024-01-27T13:40:01;10.30;1.00
20174;DHT22;10246;50.620;7.232;2024-01-27T13:42:28;10.40;1.00
20174;DHT22;10246;50.620;7.232;2024-01-27T13:44:55;10.30;1.00
20174;DHT22;10246;50.620;7.232;2024-01-27T13:47:23;10.40;1.00
20174;DHT22;10246;50.620;7.232;2024-01-27T13:49:50;10.30;1.00
20174;DHT22;10246;50.620;7.232;2024-01-27T13:52:17;10.30;1.00
20174;DHT22;10246;50.620;7.232;2024-01-27T13:54:44;10.40;1.00
20174;DHT22;10246;50.620;7.232;2024-01-27T13:57:11;10.40;1.00
20174;DHT22;10246;50.620;7.232;2024-01-27T13:59:38;10.40;1.00
20174;DHT22;10246;50.620;7.232;2024-01-27T14:02:05;10.40;1.00
20174;DHT22;10246;50.620;7.232;2024-01-27T14:04:33;10.40;1.00
20174;DHT22;10246;50.620;7.232;2024-01-27T14:07:00;10.40;1.00
20174;DHT22;10246;50.620;7.232;2024-01-27T14:09:28;10.40;1.00
20174;DHT22;10246;50.620;7.232;2024-01-27T14:11:55;10.30;1.00
20174;DHT22;10246;50.620;7.232;2024-01-27T14:14:23;10.30;1.00
20174;DHT22;10246;50.620;7.232;2024-01-27T14:16:50;10.30;1.00
20174;DHT22;10246;50.620;7.232;2024-01-27T14:19:18;10.30;1.00
20174;DHT22;10246;50.620;7.232;2024-01-27T14:21:47;10.30;1.00
20174;DHT22;10246;50.620;7.232;2024-01-27T14:24:13;10.30;1.00
20174;DHT22;10246;50.620;7.232;2024-01-27T14:26:40;10.30;1.00
20174;DHT22;10246;50.620;7.232;2024-01-27T14:29:07;10.40;1.00
20174;DHT22;10246;50.620;7.232;2024-01-27T14:31:33;10.40;1.00
20174;DHT22;10246;50.620;7.232;2024-01-27T14:34:00;10.50;1.00
20174;DHT22;10246;50.620;7.232;2024-01-27T14:36:27;10.40;1.00
20174;DHT22;10246;50.620;7.232;2024-01-27T14:38:55;10.40;1.00
20174;DHT22;10246;50.620;7.232;2024-01-27T14:41:22;10.40;1.00
20174;DHT22;10246;50.620;7.232;2024-01-27T14:43:49;10.40;1.00
20174;DHT22;10246;50.620;7.232;2024-01-27T14:46:16;10.30;1.00
20174;DHT22;10246;50.620;7.232;2024-01-27T14:48:43;10.20;1.00
20174;DHT22;10246;50.620;7.232;2024-01-27T14:51:10;10.20;1.00
20174;DHT22;10246;50.620;7.232;2024-01-27T14:53:38;10.10;1.00
20174;DHT22;10246;50.620;7.232;2024-01-27T14:56:07;10.00;1.00
20174;DHT22;10246;50.620;7.232;2024-01-27T14:58:33;10.00;1.00
20174;DHT22;10246;50.620;7.232;2024-01-27T15:01:00;9.90;1.00
20174;DHT22;10246;50.620;7.232;2024-01-27T15:03:27;9.90;1.00
20174;DHT22;10246;50.620;7.232;2024-01-27T15:05:54;9.90;1.00
20174;DHT22;10246;50.620;7.232;2024-01-27T15:08:22;9.90;1.00
20174;DHT22;10246;50.620;7.232;2024-01-27T15:10:49;9.80;1.00
20174;DHT22;10246;50.620;7.232;2024-01-27T15:13:17;9.70;1.00
20174;DHT22;10246;50.620;7.232;2024-01-27T15:15:46;9.70;1.00
20174;DHT22;10246;50.620;7.232;2024-01-27T15:18:13;9.60;1.00
20174;DHT22;10246;50.620;7.232;2024-01-27T15:20:41;9.50;1.00
20174;DHT22;10246;50.620;7.232;2024-01-27T15:23:08;9.50;1.00
20174;DHT22;10246;50.620;7.232;2024-01-27T15:25:34;9.50;1.00
20174;DHT22;10246;50.620;7.232;2024-01-27T15:28:01;9.40;1.00
20174;DHT22;10246;50.620;7.232;2024-01-27T15:30:31;9.20;1.00
20174;DHT22;10246;50.620;7.232;2024-01-27T15:32:57;9.20;1.00
20174;DHT22;10246;50.620;7.232;2024-01-27T15:35:24;9.20;1.00
20174;DHT22;10246;50.620;7.232;2024-01-27T15:37:55;9.10;1.00
20174;DHT22;10246;50.620;7.232;2024-01-27T15:40:22;9.00;1.00
20174;DHT22;10246;50.620;7.232;2024-01-27T15:42:51;8.90;1.00
20174;DHT22;10246;50.620;7.232;2024-01-27T15:45:17;8.80;1.00
20174;DHT22;10246;50.620;7.232;2024-01-27T15:47:46;8.60;1.00
20174;DHT22;10246;50.620;7.232;2024-01-27T15:50:12;8.40;1.00
20174;DHT22;10246;50.620;7.232;2024-01-27T15:52:41;8.40;1.00
20174;DHT22;10246;50.620;7.232;2024-01-27T15:55:08;8.30;1.00
20174;DHT22;10246;50.620;7.232;2024-01-27T15:57:35;8.30;1.00